GCRR

Lanzarote Airport

Lanzarote Island, Spain
TAF GCRR 212000Z 2121/2221 01012KT 9999 SCT035 TX21/2214Z TN14/2206Z
Issued Valid From Valid To
Jan-21 @ 20:00 UTC
(4 hours ago)
Jan-21 @ 21:00 UTC
(3 hours ago)
Jan-22 @ 21:00 UTC
(in 21 hours)
Jan-21 @ 21:00 to Jan-22 @ 21:00
TAF GCRR 212000Z 2121/2221 01012KT 9999 SCT035 TX21/2214Z TN14/2206Z
Wind Visibility Clouds
10° at 12 knots 10,000+ meters
  • Scattered at 3,500' AGL
TAF GCRR 212000Z 2121/2221 01012KT 9999 SCT035 TX21/2214Z TN14/2206Z
Issued Jan-21 @ 20:00 UTC
(4 hours ago)
Valid From Jan-21 @ 21:00 UTC
(3 hours ago)
Valid To Jan-22 @ 21:00 UTC
(in 21 hours)
Jan-21 @ 21:00 - Jan-22 @ 21:00
Wind Visibility
10° at 12 knots 10,000+ meters
Clouds
  • Scattered at 3,500' AGL